Time;durP1;ratioP1;P1;durP2;ratioP2;P2;SDS_P1;SDS_P2;PMS_P1;PMS_P2;Temp;Humidity;BMP_temperature;BMP_pressure;BME280_temperature;BME280_humidity;BME280_pressure;Samples;Min_cycle;Max_cycle;Signal;HPM_P1;HPM_P2
2022/07/05 00:01:32;;;;;;;6.22;3.78;;;;;;;;;;4733516;30;20579;-62
2022/07/05 00:03:59;;;;;;;7.97;4.05;;;;;;;;;;4733980;30;20098;-62
2022/07/05 00:06:27;;;;;;;7.53;4.30;;;;;;;;;;4733621;30;20151;-62
2022/07/05 00:08:54;;;;;;;6.20;3.83;;;;;;;;;;4733689;30;20057;-62
2022/07/05 00:11:21;;;;;;;5.43;3.88;;;;;;;;;;4733621;30;20078;-62
2022/07/05 00:13:48;;;;;;;6.45;4.03;;;;;;;;;;4733623;30;20056;-61
2022/07/05 00:16:16;;;;;;;15.90;7.90;;;;;;;;;;4733598;30;20049;-63
2022/07/05 00:18:43;;;;;;;5.22;4.18;;;;;;;;;;4733647;30;20045;-62
2022/07/05 00:21:11;;;;;;;7.65;4.50;;;;;;;;;;4732891;30;20045;-63
2022/07/05 00:23:40;;;;;;;5.07;3.95;;;;;;;;;;4733594;30;20064;-62
2022/07/05 00:26:08;;;;;;;7.38;5.70;;;;;;;;;;4733627;30;20509;-62
2022/07/05 00:28:35;;;;;;;5.00;4.20;;;;;;;;;;4733189;30;20053;-62
2022/07/05 00:31:03;;;;;;;5.38;3.90;;;;;;;;;;4733426;30;20413;-62
2022/07/05 00:33:30;;;;;;;6.47;4.30;;;;;;;;;;4733668;30;20102;-62
2022/07/05 00:35:57;;;;;;;5.30;4.80;;;;;;;;;;4733325;30;20048;-62
2022/07/05 00:38:24;;;;;;;5.57;4.10;;;;;;;;;;4733720;30;20456;-62
2022/07/05 00:40:52;;;;;;;7.05;4.80;;;;;;;;;;4717705;30;20045;-61
2022/07/05 00:43:19;;;;;;;4.80;3.90;;;;;;;;;;4733456;30;20056;-61
2022/07/05 00:45:46;;;;;;;4.05;3.65;;;;;;;;;;4733453;30;20413;-62
2022/07/05 00:48:14;;;;;;;6.45;5.05;;;;;;;;;;4733903;30;20065;-62
2022/07/05 00:50:42;;;;;;;9.00;4.88;;;;;;;;;;4717795;30;20053;-62
2022/07/05 00:53:12;;;;;;;5.53;4.50;;;;;;;;;;4733416;30;20065;-62
2022/07/05 00:55:40;;;;;;;4.25;3.78;;;;;;;;;;4733456;30;20068;-61
2022/07/05 00:58:09;;;;;;;4.63;3.45;;;;;;;;;;4734143;30;20053;-61
2022/07/05 01:00:36;;;;;;;8.60;5.22;;;;;;;;;;4734310;30;20044;-62
2022/07/05 01:03:04;;;;;;;5.78;4.50;;;;;;;;;;4733611;30;20132;-61
2022/07/05 01:05:32;;;;;;;6.70;3.83;;;;;;;;;;4718078;30;20128;-61
2022/07/05 01:08:01;;;;;;;4.88;3.92;;;;;;;;;;4718130;30;20048;-63
2022/07/05 01:10:29;;;;;;;6.95;4.97;;;;;;;;;;4733983;30;20444;-62
2022/07/05 01:12:56;;;;;;;4.30;3.47;;;;;;;;;;4703716;30;20072;-61
2022/07/05 01:15:24;;;;;;;6.20;4.13;;;;;;;;;;4733659;30;20510;-61
2022/07/05 01:17:51;;;;;;;7.88;3.38;;;;;;;;;;4734070;30;20468;-62
2022/07/05 01:20:19;;;;;;;12.15;6.28;;;;;;;;;;4710730;30;20045;-61
2022/07/05 01:22:53;;;;;;;11.07;6.55;;;;;;;;;;4733636;30;20139;-62
2022/07/05 01:25:22;;;;;;;5.22;3.78;;;;;;;;;;4726729;30;20402;-61
2022/07/05 01:27:49;;;;;;;7.05;4.85;;;;;;;;;;4733829;30;20489;-61
2022/07/05 01:30:20;;;;;;;9.32;5.90;;;;;;;;;;4718223;30;20513;-61
2022/07/05 01:32:49;;;;;;;6.75;3.95;;;;;;;;;;4733747;30;20060;-61
2022/07/05 01:35:23;;;;;;;5.13;3.78;;;;;;;;;;4710348;30;20048;-62
2022/07/05 01:37:51;;;;;;;4.68;3.65;;;;;;;;;;4733382;30;20175;-61
2022/07/05 01:40:20;;;;;;;6.60;3.88;;;;;;;;;;4726398;30;20048;-61
2022/07/05 01:42:48;;;;;;;4.10;3.60;;;;;;;;;;4733646;30;20049;-61
2022/07/05 01:48:05;;;;;;;6.55;3.33;;;;;;;;;;4733616;30;20111;-61
2022/07/05 01:50:37;;;;;;;6.35;3.72;;;;;;;;;;4717777;30;20135;-61
2022/07/05 01:53:08;;;;;;;6.05;3.60;;;;;;;;;;4733184;30;20418;-61
2022/07/05 01:55:35;;;;;;;4.53;3.67;;;;;;;;;;4733195;30;20067;-62
2022/07/05 01:58:03;;;;;;;4.10;3.70;;;;;;;;;;4717610;30;20126;-61
2022/07/05 02:00:30;;;;;;;5.82;3.30;;;;;;;;;;4733625;30;20110;-61
2022/07/05 02:02:58;;;;;;;6.07;4.65;;;;;;;;;;4717482;30;20079;-62
2022/07/05 02:05:27;;;;;;;5.50;3.55;;;;;;;;;;4733616;30;20061;-61
2022/07/05 02:07:54;;;;;;;5.47;4.22;;;;;;;;;;4717724;30;20075;-61
2022/07/05 02:10:22;;;;;;;6.70;3.45;;;;;;;;;;4717556;30;20453;-60
2022/07/05 02:12:49;;;;;;;7.78;5.57;;;;;;;;;;4733064;30;20049;-61
2022/07/05 02:15:17;;;;;;;5.15;4.15;;;;;;;;;;4717889;30;20409;-61
2022/07/05 02:17:46;;;;;;;8.25;4.53;;;;;;;;;;4717807;30;20053;-61
2022/07/05 02:20:14;;;;;;;6.82;3.67;;;;;;;;;;4733663;30;20123;-61
2022/07/05 02:22:42;;;;;;;4.90;3.47;;;;;;;;;;4717747;30;20457;-61
2022/07/05 02:25:09;;;;;;;5.40;3.85;;;;;;;;;;4732877;30;20083;-61
2022/07/05 02:27:37;;;;;;;5.05;3.35;;;;;;;;;;4717347;30;20413;-61
2022/07/05 02:30:06;;;;;;;6.00;3.75;;;;;;;;;;4717224;30;20080;-61
2022/07/05 02:32:41;;;;;;;5.28;3.88;;;;;;;;;;4717199;30;20056;-61
2022/07/05 02:35:10;;;;;;;6.13;4.05;;;;;;;;;;4717500;30;20049;-61
2022/07/05 02:37:41;;;;;;;4.18;3.53;;;;;;;;;;4732948;30;20095;-62
2022/07/05 02:40:13;;;;;;;6.30;3.75;;;;;;;;;;4717157;30;20489;-61
2022/07/05 02:42:45;;;;;;;7.05;4.68;;;;;;;;;;4717590;30;20412;-61
2022/07/05 02:45:14;;;;;;;4.40;3.72;;;;;;;;;;4719302;30;20048;-61
2022/07/05 02:47:45;;;;;;;4.55;3.33;;;;;;;;;;4720588;30;20292;-61
2022/07/05 02:50:14;;;;;;;7.30;3.30;;;;;;;;;;4731127;30;20079;-61
2022/07/05 02:52:46;;;;;;;5.63;3.17;;;;;;;;;;4703132;30;20071;-61
2022/07/05 02:55:17;;;;;;;4.13;3.03;;;;;;;;;;4702929;30;20061;-61
2022/07/05 02:57:45;;;;;;;3.75;3.13;;;;;;;;;;4703247;30;20064;-62
2022/07/05 03:00:15;;;;;;;7.55;4.05;;;;;;;;;;4703141;30;20151;-61
2022/07/05 03:02:45;;;;;;;7.22;3.85;;;;;;;;;;4703037;30;20057;-62
2022/07/05 03:05:14;;;;;;;6.07;3.92;;;;;;;;;;4702726;30;20148;-62
2022/07/05 03:07:49;;;;;;;5.25;2.60;;;;;;;;;;4702756;30;20391;-61
2022/07/05 03:10:17;;;;;;;5.18;2.80;;;;;;;;;;4703375;30;20095;-62
2022/07/05 03:12:44;;;;;;;3.85;2.85;;;;;;;;;;4718387;30;20406;-62
2022/07/05 03:15:13;;;;;;;7.35;3.20;;;;;;;;;;4702166;30;20118;-62
2022/07/05 03:17:41;;;;;;;5.43;2.67;;;;;;;;;;4702500;30;20128;-62
2022/07/05 03:20:09;;;;;;;3.95;2.50;;;;;;;;;;4702469;30;20092;-62
2022/07/05 03:22:37;;;;;;;3.15;2.58;;;;;;;;;;4702749;30;20045;-62
2022/07/05 03:25:06;;;;;;;4.25;2.90;;;;;;;;;;4702405;30;20053;-63
2022/07/05 03:27:34;;;;;;;6.00;3.25;;;;;;;;;;4717769;30;20037;-62
2022/07/05 03:30:04;;;;;;;5.63;2.40;;;;;;;;;;4702675;30;20045;-62
2022/07/05 03:32:34;;;;;;;3.60;2.40;;;;;;;;;;4702117;30;20111;-62
2022/07/05 03:35:04;;;;;;;5.00;2.60;;;;;;;;;;4702379;30;20052;-62
2022/07/05 03:37:32;;;;;;;4.70;2.53;;;;;;;;;;4716706;30;20071;-62
2022/07/05 03:39:59;;;;;;;4.78;2.97;;;;;;;;;;4702281;30;20568;-62
2022/07/05 03:42:27;;;;;;;2.47;1.95;;;;;;;;;;4717924;30;20061;-62
2022/07/05 03:44:54;;;;;;;3.13;2.35;;;;;;;;;;4716551;30;20056;-61
2022/07/05 03:47:22;;;;;;;2.65;2.20;;;;;;;;;;4718556;30;20466;-62
2022/07/05 03:49:49;;;;;;;3.55;1.90;;;;;;;;;;4717479;30;20053;-61
2022/07/05 03:52:19;;;;;;;3.47;2.33;;;;;;;;;;4719505;30;20049;-62
2022/07/05 03:54:54;;;;;;;4.45;2.28;;;;;;;;;;4719029;30;20062;-63
2022/07/05 03:57:24;;;;;;;2.90;2.20;;;;;;;;;;4718024;30;20049;-62
2022/07/05 03:59:52;;;;;;;4.13;2.20;;;;;;;;;;4719397;30;20102;-62
2022/07/05 04:02:19;;;;;;;4.13;2.05;;;;;;;;;;4735103;30;20414;-61
2022/07/05 04:04:47;;;;;;;3.42;1.88;;;;;;;;;;4719313;30;20509;-63
2022/07/05 04:07:14;;;;;;;3.42;1.80;;;;;;;;;;4719310;30;20142;-62
2022/07/05 04:09:42;;;;;;;2.88;2.00;;;;;;;;;;4719233;30;20080;-62
2022/07/05 04:12:10;;;;;;;2.47;1.55;;;;;;;;;;4734665;30;20127;-61
2022/07/05 04:14:40;;;;;;;3.33;1.40;;;;;;;;;;4719385;30;20048;-63
2022/07/05 04:17:08;;;;;;;6.05;1.63;;;;;;;;;;4734371;30;20067;-63
2022/07/05 04:19:35;;;;;;;3.20;1.33;;;;;;;;;;4719135;30;20532;-63
2022/07/05 04:22:03;;;;;;;3.50;1.80;;;;;;;;;;4718781;30;20060;-62
2022/07/05 04:25:16;;;;;;;3.38;1.42;;;;;;;;;;4719049;30;20102;-63
2022/07/05 04:27:24;;;;;;;3.00;1.63;;;;;;;;;;4734482;30;20076;-63
2022/07/05 04:29:52;;;;;;;3.47;1.77;;;;;;;;;;4718698;30;20052;-62
2022/07/05 04:32:19;;;;;;;2.22;1.30;;;;;;;;;;4718253;30;20131;-62
2022/07/05 04:34:47;;;;;;;2.80;1.48;;;;;;;;;;4719124;30;20052;-63
2022/07/05 04:37:15;;;;;;;2.38;1.33;;;;;;;;;;4734401;30;20049;-63
2022/07/05 04:39:42;;;;;;;1.98;1.20;;;;;;;;;;4718877;30;20059;-62
2022/07/05 04:42:10;;;;;;;3.72;1.52;;;;;;;;;;4718786;30;20140;-63
2022/07/05 04:44:38;;;;;;;2.95;1.45;;;;;;;;;;4718608;30;20502;-63
2022/07/05 04:47:06;;;;;;;1.45;1.23;;;;;;;;;;4718443;30;20064;-63
2022/07/05 04:49:33;;;;;;;2.42;1.10;;;;;;;;;;4718763;30;20049;-63
2022/07/05 04:52:01;;;;;;;2.22;1.25;;;;;;;;;;4718420;30;20044;-63
2022/07/05 04:54:29;;;;;;;2.15;1.30;;;;;;;;;;4718764;30;20056;-63
2022/07/05 04:56:56;;;;;;;3.83;1.60;;;;;;;;;;4733727;30;20091;-63
2022/07/05 04:59:24;;;;;;;3.65;1.95;;;;;;;;;;4734105;30;20056;-63
2022/07/05 05:01:52;;;;;;;48.47;29.02;;;;;;;;;;4734107;30;20045;-63
2022/07/05 05:04:19;;;;;;;17.27;10.05;;;;;;;;;;4733995;30;20544;-63
2022/07/05 05:06:47;;;;;;;4.47;1.70;;;;;;;;;;4734107;30;20132;-62
2022/07/05 05:09:14;;;;;;;6.22;1.30;;;;;;;;;;4717920;30;20509;-63
2022/07/05 05:11:41;;;;;;;2.25;1.30;;;;;;;;;;4733153;30;20125;-64
2022/07/05 05:14:11;;;;;;;3.05;1.30;;;;;;;;;;4733357;30;20143;-64
2022/07/05 05:16:39;;;;;;;3.45;1.27;;;;;;;;;;4733767;30;20506;-64
2022/07/05 05:19:07;;;;;;;1.42;0.93;;;;;;;;;;4733780;30;20048;-63
2022/07/05 05:21:34;;;;;;;1.80;1.00;;;;;;;;;;4718723;30;20049;-62
2022/07/05 05:24:02;;;;;;;1.80;1.30;;;;;;;;;;4685367;30;20071;-64
2022/07/05 05:26:29;;;;;;;2.92;1.30;;;;;;;;;;4713952;30;20674;-64
2022/07/05 05:28:56;;;;;;;2.70;1.35;;;;;;;;;;4730658;30;20048;-64
2022/07/05 05:31:24;;;;;;;118.97;64.60;;;;;;;;;;4733444;30;20675;-62
2022/07/05 05:33:52;;;;;;;13.35;7.55;;;;;;;;;;4733933;30;20051;-62
2022/07/05 05:36:19;;;;;;;3.00;1.45;;;;;;;;;;4733469;30;20049;-63
2022/07/05 05:38:46;;;;;;;2.40;1.20;;;;;;;;;;4733684;30;20130;-65
2022/07/05 05:41:17;;;;;;;2.15;1.23;;;;;;;;;;4732933;30;20055;-63
2022/07/05 05:43:44;;;;;;;2.50;1.15;;;;;;;;;;4733567;30;20045;-63
2022/07/05 05:46:11;;;;;;;6.28;1.50;;;;;;;;;;4733486;30;20510;-64
2022/07/05 05:48:38;;;;;;;3.63;1.40;;;;;;;;;;4733711;30;20065;-63
2022/07/05 05:51:06;;;;;;;4.35;1.30;;;;;;;;;;4733727;30;20114;-63
2022/07/05 05:53:33;;;;;;;5.35;1.10;;;;;;;;;;4733321;30;20045;-63
2022/07/05 05:56:00;;;;;;;3.45;1.30;;;;;;;;;;4733243;30;20061;-64
2022/07/05 05:58:27;;;;;;;2.65;1.20;;;;;;;;;;4733485;30;20526;-63
2022/07/05 06:00:55;;;;;;;3.60;2.08;;;;;;;;;;4733192;30;20524;-64
2022/07/05 06:03:27;;;;;;;2.28;1.30;;;;;;;;;;4733224;30;20044;-62
2022/07/05 06:05:54;;;;;;;3.20;1.50;;;;;;;;;;4717735;30;20106;-63
2022/07/05 06:08:22;;;;;;;2.60;1.02;;;;;;;;;;4733414;30;20052;-63
2022/07/05 06:10:50;;;;;;;2.13;1.10;;;;;;;;;;4733418;30;20051;-63
2022/07/05 06:13:27;;;;;;;2.30;1.10;;;;;;;;;;4733376;30;20040;-62
2022/07/05 06:15:56;;;;;;;2.38;1.30;;;;;;;;;;4733355;30;20044;-64
2022/07/05 06:18:26;;;;;;;3.35;1.20;;;;;;;;;;4733409;30;20041;-62
2022/07/05 06:20:53;;;;;;;1.35;0.73;;;;;;;;;;4736089;30;20401;-64
2022/07/05 06:23:20;;;;;;;2.20;1.08;;;;;;;;;;4729880;30;20433;-62
2022/07/05 06:25:47;;;;;;;9.27;4.15;;;;;;;;;;4736836;30;20567;-62
2022/07/05 06:28:15;;;;;;;3.00;1.27;;;;;;;;;;4736828;30;20055;-63
2022/07/05 06:30:43;;;;;;;3.97;1.15;;;;;;;;;;4736494;30;20511;-62
2022/07/05 06:33:12;;;;;;;1.90;0.88;;;;;;;;;;4736114;30;20525;-64
2022/07/05 06:35:39;;;;;;;2.33;1.00;;;;;;;;;;4736381;30;20065;-64
2022/07/05 06:38:09;;;;;;;1.95;0.88;;;;;;;;;;4736718;30;20049;-65
2022/07/05 06:40:38;;;;;;;3.22;0.90;;;;;;;;;;4736326;30;20567;-65
2022/07/05 06:43:08;;;;;;;1.83;0.80;;;;;;;;;;4736595;30;20072;-63
2022/07/05 06:45:55;;;;;;;3.10;0.98;;;;;;;;;;4720493;30;20120;-63
2022/07/05 06:48:23;;;;;;;2.08;0.70;;;;;;;;;;4736640;30;20453;-63
2022/07/05 06:50:53;;;;;;;2.08;0.90;;;;;;;;;;4736089;30;20445;-63
2022/07/05 06:53:21;;;;;;;14.85;8.98;;;;;;;;;;4736392;30;20129;-63
2022/07/05 06:55:49;;;;;;;4.88;2.63;;;;;;;;;;4735922;30;20490;-64
2022/07/05 06:58:22;;;;;;;2.88;1.13;;;;;;;;;;4736123;30;20122;-62
2022/07/05 07:00:50;;;;;;;2.05;0.90;;;;;;;;;;4735915;30;20052;-61
2022/07/05 07:03:38;;;;;;;2.50;1.05;;;;;;;;;;4736009;30;20123;-63
2022/07/05 07:06:25;;;;;;;4.95;1.17;;;;;;;;;;4735749;30;20049;-62
2022/07/05 07:11:37;;;;;;;1.80;0.80;;;;;;;;;;4736000;30;20041;-62
2022/07/05 07:14:04;;;;;;;4.30;1.83;;;;;;;;;;4736080;30;20049;-63
2022/07/05 07:16:31;;;;;;;1.70;0.90;;;;;;;;;;4719785;30;20602;-62
2022/07/05 07:18:58;;;;;;;7.13;1.40;;;;;;;;;;4735170;30;20052;-63
2022/07/05 07:21:39;;;;;;;2.22;1.08;;;;;;;;;;4719444;30;20506;-63
2022/07/05 07:24:07;;;;;;;4.65;1.05;;;;;;;;;;4733582;30;20053;-62
2022/07/05 07:29:20;;;;;;;2.20;1.08;;;;;;;;;;4735574;30;20417;-63
2022/07/05 07:31:48;;;;;;;2.47;0.80;;;;;;;;;;4735218;30;20048;-64
2022/07/05 07:34:15;;;;;;;15.57;9.27;;;;;;;;;;4735733;30;20044;-65
2022/07/05 07:36:42;;;;;;;2.78;1.35;;;;;;;;;;4735166;30;20048;-63
2022/07/05 07:39:10;;;;;;;8.48;1.13;;;;;;;;;;4735445;30;20640;-64
2022/07/05 07:41:37;;;;;;;2.20;0.93;;;;;;;;;;4735380;30;20045;-63
2022/07/05 07:44:04;;;;;;;3.38;1.10;;;;;;;;;;4735002;30;20056;-64
2022/07/05 07:46:32;;;;;;;3.70;1.10;;;;;;;;;;4735085;30;20524;-63
2022/07/05 07:48:59;;;;;;;2.83;1.00;;;;;;;;;;4734847;30;20593;-63
2022/07/05 07:51:27;;;;;;;1.80;0.80;;;;;;;;;;4735377;30;20571;-63
2022/07/05 07:53:57;;;;;;;2.60;0.90;;;;;;;;;;4735147;30;20131;-63
2022/07/05 07:56:35;;;;;;;3.72;1.00;;;;;;;;;;4735021;30;20057;-62
2022/07/05 07:59:02;;;;;;;1.13;0.70;;;;;;;;;;4735069;30;20114;-63
2022/07/05 08:01:31;;;;;;;1.83;1.10;;;;;;;;;;4735145;30;20058;-62
2022/07/05 08:03:58;;;;;;;2.75;1.13;;;;;;;;;;4735287;30;20041;-63
2022/07/05 08:06:26;;;;;;;3.00;1.10;;;;;;;;;;4752281;30;20048;-64
2022/07/05 08:08:53;;;;;;;1.77;1.08;;;;;;;;;;4752546;30;20492;-63
2022/07/05 08:11:20;;;;;;;2.30;0.80;;;;;;;;;;4752316;30;20119;-61
2022/07/05 08:13:47;;;;;;;5.38;1.45;;;;;;;;;;4752518;30;20048;-62
2022/07/05 08:16:15;;;;;;;3.83;1.15;;;;;;;;;;4752578;30;20055;-63
2022/07/05 08:21:30;;;;;;;5.78;0.90;;;;;;;;;;4751658;30;20485;-64
2022/07/05 08:23:59;;;;;;;2.30;1.40;;;;;;;;;;4752401;30;20056;-63
2022/07/05 08:26:28;;;;;;;5.05;0.73;;;;;;;;;;4752568;30;20055;-63
2022/07/05 08:28:55;;;;;;;4.47;1.17;;;;;;;;;;4752130;30;20040;-63
2022/07/05 08:31:39;;;;;;;12.10;7.07;;;;;;;;;;4752162;30;20074;-64
2022/07/05 08:34:07;;;;;;;5.20;1.08;;;;;;;;;;4752089;30;20599;-63
2022/07/05 08:36:35;;;;;;;6.20;1.40;;;;;;;;;;4752082;30;20036;-65
2022/07/05 08:39:03;;;;;;;5.68;0.95;;;;;;;;;;4751915;30;20048;-68
2022/07/05 08:41:34;;;;;;;1.88;1.13;;;;;;;;;;4739701;30;20490;-69
2022/07/05 08:44:03;;;;;;;1.50;0.90;;;;;;;;;;4734153;30;20095;-66
2022/07/05 08:46:32;;;;;;;3.10;0.90;;;;;;;;;;4734182;30;20051;-65
2022/07/05 08:49:02;;;;;;;2.53;0.80;;;;;;;;;;4734041;30;20452;-66
2022/07/05 08:51:38;;;;;;;4.75;1.20;;;;;;;;;;4720028;30;20036;-67
2022/07/05 08:54:08;;;;;;;5.43;1.83;;;;;;;;;;4734210;30;20140;-68
2022/07/05 08:56:36;;;;;;;3.22;1.00;;;;;;;;;;4734057;30;20140;-67
2022/07/05 08:59:23;;;;;;;2.17;0.88;;;;;;;;;;4734253;30;20055;-68
2022/07/05 09:01:52;;;;;;;1.70;0.73;;;;;;;;;;4734142;30;20049;-63
2022/07/05 09:04:19;;;;;;;3.63;0.90;;;;;;;;;;4727008;30;20043;-63
2022/07/05 09:06:48;;;;;;;3.63;0.85;;;;;;;;;;4733865;30;20045;-63
2022/07/05 09:09:18;;;;;;;4.75;1.08;;;;;;;;;;4733844;30;20456;-65
2022/07/05 09:11:46;;;;;;;2.97;1.17;;;;;;;;;;4734274;30;20513;-67
2022/07/05 09:14:34;;;;;;;13.55;8.02;;;;;;;;;;4728466;30;20102;-70
2022/07/05 09:17:01;;;;;;;2.65;1.55;;;;;;;;;;4733680;30;20045;-67
2022/07/05 09:19:30;;;;;;;3.72;0.90;;;;;;;;;;4718067;30;20056;-69
2022/07/05 09:22:02;;;;;;;1.30;0.60;;;;;;;;;;4733619;30;20076;-71
2022/07/05 09:24:31;;;;;;;4.20;1.15;;;;;;;;;;4733790;30;20040;-69
2022/07/05 09:27:05;;;;;;;1.85;0.80;;;;;;;;;;4733606;30;20047;-68
2022/07/05 09:29:33;;;;;;;0.93;0.70;;;;;;;;;;4733372;30;20053;-67
2022/07/05 09:32:25;;;;;;;3.15;0.80;;;;;;;;;;4733421;30;20528;-70
2022/07/05 09:34:52;;;;;;;1.48;0.80;;;;;;;;;;4733610;30;20132;-63
2022/07/05 09:37:19;;;;;;;2.15;0.60;;;;;;;;;;4734227;30;20048;-68
2022/07/05 09:39:46;;;;;;;2.53;1.00;;;;;;;;;;4733736;30;20123;-69
2022/07/05 09:42:19;;;;;;;1.90;0.80;;;;;;;;;;4733780;30;20055;-71
2022/07/05 09:44:51;;;;;;;2.33;0.82;;;;;;;;;;4733853;30;20044;-68
2022/07/05 09:47:21;;;;;;;2.38;0.85;;;;;;;;;;4726219;30;20052;-67
2022/07/05 09:49:50;;;;;;;3.55;1.05;;;;;;;;;;4733651;30;20049;-72
2022/07/05 09:52:39;;;;;;;5.57;2.08;;;;;;;;;;4733642;30;20550;-66
2022/07/05 09:55:16;;;;;;;3.58;1.10;;;;;;;;;;4736904;30;20048;-68
2022/07/05 09:57:45;;;;;;;3.30;0.82;;;;;;;;;;4736799;30;20048;-66
2022/07/05 10:00:18;;;;;;;2.08;1.00;;;;;;;;;;4737061;30;20423;-69
2022/07/05 10:02:53;;;;;;;2.42;0.90;;;;;;;;;;4737014;30;20048;-69
2022/07/05 10:05:22;;;;;;;2.03;0.70;;;;;;;;;;4737474;30;20049;-60
2022/07/05 10:07:55;;;;;;;3.20;0.90;;;;;;;;;;4736605;30;20525;-68
2022/07/05 10:10:27;;;;;;;3.20;0.82;;;;;;;;;;4736328;30;20086;-69
2022/07/05 10:12:56;;;;;;;3.25;0.93;;;;;;;;;;4734942;30;20082;-65
2022/07/05 10:15:26;;;;;;;2.08;0.90;;;;;;;;;;4735100;30;20056;-68
2022/07/05 10:17:58;;;;;;;1.77;1.00;;;;;;;;;;4734808;30;20041;-69
2022/07/05 10:20:34;;;;;;;2.83;0.82;;;;;;;;;;4734474;30;20052;-73
2022/07/05 10:23:05;;;;;;;1.27;0.85;;;;;;;;;;4734479;30;20323;-70
2022/07/05 10:25:35;;;;;;;3.40;1.05;;;;;;;;;;4735010;30;20111;-71
2022/07/05 10:28:03;;;;;;;1.70;0.95;;;;;;;;;;4736654;30;20044;-71
2022/07/05 10:30:32;;;;;;;4.05;0.90;;;;;;;;;;4736407;30;20116;-71
2022/07/05 10:33:01;;;;;;;1.73;0.88;;;;;;;;;;4735975;30;20893;-65
2022/07/05 10:35:29;;;;;;;1.90;0.90;;;;;;;;;;4736954;30;20598;-67
2022/07/05 10:37:58;;;;;;;2.40;0.90;;;;;;;;;;4736382;30;20044;-64
2022/07/05 10:40:26;;;;;;;2.10;0.82;;;;;;;;;;4720592;30;20159;-66
2022/07/05 10:43:01;;;;;;;7.90;1.02;;;;;;;;;;4736362;30;20102;-66
2022/07/05 10:45:33;;;;;;;1.65;0.70;;;;;;;;;;4736232;30;20044;-66
2022/07/05 10:48:11;;;;;;;2.25;1.00;;;;;;;;;;4736404;30;20052;-66
2022/07/05 10:50:52;;;;;;;2.22;0.80;;;;;;;;;;4735607;30;20068;-67
2022/07/05 10:53:29;;;;;;;4.38;0.75;;;;;;;;;;4736170;30;20049;-64
2022/07/05 10:56:11;;;;;;;3.13;0.75;;;;;;;;;;4735980;30;20085;-73
2022/07/05 10:58:43;;;;;;;4.37;1.10;;;;;;;;;;4736038;30;20669;-71
2022/07/05 11:01:19;;;;;;;2.85;1.00;;;;;;;;;;4735983;30;20696;-69
2022/07/05 11:04:04;;;;;;;2.15;0.93;;;;;;;;;;4721011;30;20048;-69
2022/07/05 11:06:39;;;;;;;3.50;0.90;;;;;;;;;;4735469;30;20044;-70
2022/07/05 11:09:09;;;;;;;1.70;0.90;;;;;;;;;;4735332;30;20498;-68
2022/07/05 11:11:41;;;;;;;2.05;0.85;;;;;;;;;;4735676;30;20080;-68
2022/07/05 11:14:29;;;;;;;1.88;1.00;;;;;;;;;;4736012;30;20052;-70
2022/07/05 11:17:09;;;;;;;1.30;0.90;;;;;;;;;;4735681;30;20052;-70
2022/07/05 11:20:06;;;;;;;3.90;1.58;;;;;;;;;;4735446;30;20103;-66
2022/07/05 11:22:39;;;;;;;1.85;1.00;;;;;;;;;;4735596;30;20456;-65
2022/07/05 11:25:10;;;;;;;1.20;0.80;;;;;;;;;;4735287;30;20084;-67
2022/07/05 11:28:05;;;;;;;2.88;0.80;;;;;;;;;;4735822;30;20053;-66
2022/07/05 11:30:50;;;;;;;2.83;1.00;;;;;;;;;;4735652;30;20047;-66
2022/07/05 11:33:32;;;;;;;3.25;1.10;;;;;;;;;;4735281;30;20060;-66
2022/07/05 11:36:00;;;;;;;6.60;1.55;;;;;;;;;;4735552;30;20132;-65
2022/07/05 11:38:28;;;;;;;3.33;0.70;;;;;;;;;;4735401;30;20095;-68
2022/07/05 11:41:15;;;;;;;2.58;0.80;;;;;;;;;;4734468;30;20076;-71
2022/07/05 11:43:42;;;;;;;4.68;0.88;;;;;;;;;;4735632;30;20406;-68
2022/07/05 11:46:10;;;;;;;2.58;0.90;;;;;;;;;;4735647;30;20044;-67
2022/07/05 11:49:00;;;;;;;45.80;29.02;;;;;;;;;;4734549;30;20051;-66
2022/07/05 11:51:27;;;;;;;2.55;1.50;;;;;;;;;;4733837;30;20052;-65
2022/07/05 11:53:55;;;;;;;1.55;0.73;;;;;;;;;;4718059;30;20052;-65
2022/07/05 11:56:42;;;;;;;3.35;0.70;;;;;;;;;;4734677;30;20065;-65
2022/07/05 11:59:23;;;;;;;2.15;1.08;;;;;;;;;;4734917;30;20143;-65
2022/07/05 12:01:52;;;;;;;2.20;1.00;;;;;;;;;;4734946;30;20056;-62
2022/07/05 12:04:24;;;;;;;1.52;0.77;;;;;;;;;;4735029;30;20057;-66
2022/07/05 12:06:51;;;;;;;2.45;0.73;;;;;;;;;;4735100;30;20520;-63
2022/07/05 12:09:24;;;;;;;3.10;0.80;;;;;;;;;;4735052;30;20057;-65
2022/07/05 12:14:50;;;;;;;5.05;1.25;;;;;;;;;;4735063;30;20071;-66
2022/07/05 12:17:19;;;;;;;4.53;1.05;;;;;;;;;;4734039;30;20111;-68
2022/07/05 12:19:56;;;;;;;4.00;0.98;;;;;;;;;;4741745;30;20044;-66
2022/07/05 12:22:30;;;;;;;2.40;0.63;;;;;;;;;;4752328;30;20051;-66
2022/07/05 12:24:58;;;;;;;1.83;0.88;;;;;;;;;;4752046;30;20044;-66
2022/07/05 12:27:27;;;;;;;1.13;0.75;;;;;;;;;;4752270;30;20070;-67
2022/07/05 12:29:56;;;;;;;2.67;0.80;;;;;;;;;;4752297;30;20513;-66
2022/07/05 12:32:23;;;;;;;4.30;0.98;;;;;;;;;;4752058;30;20094;-67
2022/07/05 12:34:50;;;;;;;1.73;0.77;;;;;;;;;;4752695;30;20048;-68
2022/07/05 12:37:25;;;;;;;2.65;0.85;;;;;;;;;;4752527;30;20442;-65
2022/07/05 12:40:07;;;;;;;5.45;0.90;;;;;;;;;;4751824;30;20055;-64
2022/07/05 12:42:39;;;;;;;4.03;1.10;;;;;;;;;;4751888;30;20505;-64
2022/07/05 12:45:14;;;;;;;1.92;0.88;;;;;;;;;;4751866;30;20127;-65
2022/07/05 12:47:55;;;;;;;1.20;0.70;;;;;;;;;;4751947;30;20056;-61
2022/07/05 12:50:31;;;;;;;2.05;0.82;;;;;;;;;;4745308;30;20059;-64
2022/07/05 12:58:53;;;;;;;1.75;0.90;;;;;;;;;;4733727;30;20050;-65
2022/07/05 13:01:25;;;;;;;3.63;1.08;;;;;;;;;;4734529;30;20048;-66
2022/07/05 13:04:08;;;;;;;4.82;1.00;;;;;;;;;;4734177;30;20056;-60
2022/07/05 13:06:40;;;;;;;2.30;1.15;;;;;;;;;;4734063;30;20053;-60
2022/07/05 13:09:09;;;;;;;3.78;1.10;;;;;;;;;;4733645;30;20112;-63
2022/07/05 13:11:36;;;;;;;2.35;0.93;;;;;;;;;;4733889;30;20579;-65
2022/07/05 13:14:04;;;;;;;4.75;0.90;;;;;;;;;;4734098;30;20044;-66
2022/07/05 13:16:31;;;;;;;2.85;0.73;;;;;;;;;;4734015;30;20128;-67
2022/07/05 13:19:12;;;;;;;4.03;1.00;;;;;;;;;;4733971;30;20053;-66
2022/07/05 13:21:42;;;;;;;1.55;0.70;;;;;;;;;;4733798;30;20088;-64
2022/07/05 13:24:09;;;;;;;2.47;1.02;;;;;;;;;;4733949;30;20106;-66
2022/07/05 13:26:36;;;;;;;10.43;1.20;;;;;;;;;;4733638;30;20048;-67
2022/07/05 13:29:04;;;;;;;21.60;7.40;;;;;;;;;;4733602;30;20048;-61
2022/07/05 13:31:31;;;;;;;7.43;1.10;;;;;;;;;;4733695;30;20107;-59
2022/07/05 13:33:59;;;;;;;3.85;1.02;;;;;;;;;;4733716;30;20076;-60
2022/07/05 13:36:29;;;;;;;4.82;0.93;;;;;;;;;;4733398;30;20502;-59
2022/07/05 13:38:56;;;;;;;2.90;1.10;;;;;;;;;;4733954;30;20055;-63
2022/07/05 13:41:24;;;;;;;2.55;0.90;;;;;;;;;;4733850;30;20080;-60
2022/07/05 13:43:51;;;;;;;5.35;1.10;;;;;;;;;;4733809;30;20573;-61
2022/07/05 13:46:18;;;;;;;3.88;0.90;;;;;;;;;;4733991;30;20055;-62
2022/07/05 13:48:46;;;;;;;4.30;0.90;;;;;;;;;;4733312;30;20573;-65
2022/07/05 13:51:13;;;;;;;19.30;5.50;;;;;;;;;;4733098;30;20057;-62
2022/07/05 13:53:40;;;;;;;2.90;1.63;;;;;;;;;;4718283;30;20542;-65
2022/07/05 13:56:08;;;;;;;6.40;1.10;;;;;;;;;;4732859;30;20066;-67
2022/07/05 13:58:35;;;;;;;2.22;0.95;;;;;;;;;;4733629;30;20453;-65
2022/07/05 14:01:03;;;;;;;2.33;1.13;;;;;;;;;;4733149;30;20045;-66
2022/07/05 14:03:31;;;;;;;3.15;1.00;;;;;;;;;;4733558;30;20045;-62
2022/07/05 14:05:58;;;;;;;4.03;1.30;;;;;;;;;;4733563;30;20067;-62
2022/07/05 14:08:26;;;;;;;1.85;0.80;;;;;;;;;;4717969;30;20036;-62
2022/07/05 14:10:55;;;;;;;1.95;0.90;;;;;;;;;;4733245;30;20056;-62
2022/07/05 14:13:25;;;;;;;2.03;0.90;;;;;;;;;;4733431;30;20421;-61
2022/07/05 14:15:52;;;;;;;2.10;1.08;;;;;;;;;;4733306;30;20048;-62
2022/07/05 14:18:21;;;;;;;3.45;1.20;;;;;;;;;;4733357;30;20048;-61
2022/07/05 14:20:49;;;;;;;5.50;3.28;;;;;;;;;;4733439;30;20502;-63
2022/07/05 14:23:16;;;;;;;2.53;1.10;;;;;;;;;;4733337;30;20409;-62
2022/07/05 14:25:45;;;;;;;1.98;0.68;;;;;;;;;;4732951;30;20048;-62
2022/07/05 14:28:12;;;;;;;2.38;1.17;;;;;;;;;;4732804;30;20053;-62
2022/07/05 14:30:45;;;;;;;3.10;1.15;;;;;;;;;;4732977;30;20087;-63
2022/07/05 14:33:13;;;;;;;1.42;1.00;;;;;;;;;;4733174;30;20449;-64
2022/07/05 14:35:41;;;;;;;2.67;1.05;;;;;;;;;;4733245;30;20244;-63
2022/07/05 14:38:09;;;;;;;3.40;0.90;;;;;;;;;;4732801;30;20080;-63
2022/07/05 14:40:36;;;;;;;2.15;1.02;;;;;;;;;;4733905;30;20040;-62
2022/07/05 14:43:03;;;;;;;2.10;1.27;;;;;;;;;;4736204;30;20046;-63
2022/07/05 14:45:31;;;;;;;1.80;1.15;;;;;;;;;;4736710;30;20072;-63
2022/07/05 14:47:59;;;;;;;2.30;1.27;;;;;;;;;;4736611;30;20541;-64
2022/07/05 14:50:26;;;;;;;2.38;1.10;;;;;;;;;;4736397;30;20044;-63
2022/07/05 14:52:54;;;;;;;1.77;1.02;;;;;;;;;;4736372;30;20049;-63
2022/07/05 14:55:21;;;;;;;2.28;1.08;;;;;;;;;;4736111;30;20387;-63
2022/07/05 14:57:49;;;;;;;2.28;1.10;;;;;;;;;;4735997;30;20077;-65
2022/07/05 15:00:17;;;;;;;1.70;0.98;;;;;;;;;;4736026;30;20056;-64
2022/07/05 15:02:46;;;;;;;1.73;1.00;;;;;;;;;;4736391;30;20453;-64
2022/07/05 15:05:14;;;;;;;2.97;1.33;;;;;;;;;;4735636;30;20055;-64
2022/07/05 15:07:41;;;;;;;1.95;1.17;;;;;;;;;;4736082;30;20581;-65
2022/07/05 15:10:09;;;;;;;3.60;1.20;;;;;;;;;;4736186;30;20076;-65
2022/07/05 15:12:36;;;;;;;1.38;0.90;;;;;;;;;;4735822;30;20571;-64
2022/07/05 15:15:04;;;;;;;2.22;1.25;;;;;;;;;;4735453;30;20055;-64
2022/07/05 15:17:33;;;;;;;1.80;0.98;;;;;;;;;;4735099;30;20045;-63
2022/07/05 15:20:00;;;;;;;2.47;1.35;;;;;;;;;;4729095;30;20048;-64